createdAt,value
2022-11-14T00:10:21.253Z,69.4
2022-11-14T00:22:21.297Z,70.0
2022-11-14T00:34:21.321Z,70.9
2022-11-14T00:46:21.285Z,70.9
2022-11-14T00:58:21.202Z,71.2
2022-11-14T01:10:21.339Z,72.8
2022-11-14T01:22:21.193Z,73.8
2022-11-14T01:34:21.196Z,75.6
2022-11-14T01:46:21.242Z,76.2
2022-11-14T01:58:21.286Z,77.8
2022-11-14T02:10:21.193Z,79.4
2022-11-14T02:22:21.303Z,78.7
2022-11-14T02:34:21.311Z,79.6
2022-11-14T02:46:21.301Z,80.6
2022-11-14T02:58:21.199Z,81.3
2022-11-14T03:10:21.241Z,82.4
2022-11-14T03:22:21.282Z,84.1
2022-11-14T03:34:21.243Z,85.0
2022-11-14T03:46:21.283Z,85.2
2022-11-14T03:58:21.288Z,85.9
2022-11-14T04:10:21.265Z,86.6
2022-11-14T04:22:21.312Z,87.6
2022-11-14T04:34:21.193Z,88.5
2022-11-14T04:46:21.257Z,89.0
2022-11-14T04:58:21.246Z,89.7
2022-11-14T05:10:21.304Z,90.0
2022-11-14T05:22:21.290Z,90.5
2022-11-14T05:34:21.267Z,90.1
2022-11-14T05:46:21.278Z,89.5
2022-11-14T05:58:21.194Z,89.2
2022-11-14T06:10:21.188Z,89.3
2022-11-14T06:22:21.195Z,88.3
2022-11-14T06:34:21.301Z,88.9
2022-11-14T06:46:21.292Z,89.3
2022-11-14T06:58:21.289Z,90.2
2022-11-14T07:10:21.266Z,90.8
2022-11-14T07:22:21.292Z,91.6
2022-11-14T07:34:21.318Z,91.7
2022-11-14T07:46:21.188Z,91.6
2022-11-14T07:58:21.266Z,92.0
2022-11-14T08:10:21.304Z,91.9
2022-11-14T08:22:21.305Z,91.4
2022-11-14T08:34:21.198Z,91.0
2022-11-14T08:46:21.190Z,90.8
2022-11-14T08:58:21.294Z,91.1
2022-11-14T09:10:21.318Z,91.1
2022-11-14T09:22:21.240Z,90.6
2022-11-14T09:34:21.273Z,89.9
2022-11-14T09:46:21.289Z,89.8
2022-11-14T09:58:21.191Z,89.7
2022-11-14T10:10:21.385Z,90.5
2022-11-14T10:22:21.254Z,91.0
2022-11-14T10:34:21.255Z,91.1
2022-11-14T10:46:21.298Z,90.7
2022-11-14T10:58:21.297Z,89.6
2022-11-14T11:10:21.239Z,89.1
2022-11-14T11:22:21.185Z,84.2
2022-11-14T11:34:21.285Z,83.3
2022-11-14T11:46:21.244Z,83.7
2022-11-14T11:58:21.203Z,84.0
2022-11-14T12:10:21.267Z,83.5
2022-11-14T12:22:21.195Z,85.6
2022-11-14T12:34:21.236Z,84.0
2022-11-14T12:46:21.289Z,83.0
2022-11-14T12:58:21.186Z,83.1
2022-11-14T13:10:21.293Z,83.0
2022-11-14T13:22:21.311Z,83.5
2022-11-14T13:34:21.304Z,84.2
2022-11-14T13:46:21.252Z,84.1
2022-11-14T13:58:21.189Z,84.6
2022-11-14T14:10:21.275Z,84.9
2022-11-14T14:22:21.212Z,84.5
2022-11-14T14:34:21.200Z,85.3
2022-11-14T14:46:21.690Z,86.0
2022-11-14T14:58:22.545Z,86.3
2022-11-14T15:10:21.294Z,86.0
2022-11-14T15:22:21.283Z,86.4
2022-11-14T15:34:21.251Z,86.7
2022-11-14T15:46:21.191Z,87.5
2022-11-14T15:58:28.218Z,87.0
2022-11-14T16:10:21.275Z,86.5
2022-11-14T16:22:21.306Z,86.2
2022-11-14T16:34:21.310Z,86.0
2022-11-14T16:46:21.320Z,85.9
2022-11-14T16:58:21.304Z,86.1
2022-11-14T17:10:21.189Z,85.6
2022-11-14T17:22:21.195Z,87.0
2022-11-14T17:34:21.295Z,88.3
2022-11-14T17:46:21.195Z,87.6
2022-11-14T17:58:21.264Z,86.5
2022-11-14T18:10:21.248Z,86.6
2022-11-14T18:22:21.200Z,87.3
2022-11-14T18:34:21.307Z,87.5
2022-11-14T18:46:21.270Z,87.7
2022-11-14T18:58:21.191Z,87.9
2022-11-14T19:10:21.197Z,87.9
2022-11-14T19:22:21.309Z,88.0
2022-11-14T19:34:21.244Z,88.4
2022-11-14T19:46:21.188Z,88.9
2022-11-14T19:58:21.194Z,88.4
2022-11-14T20:10:21.195Z,88.5
2022-11-14T20:22:21.189Z,89.1
2022-11-14T20:34:21.295Z,88.9
2022-11-14T20:46:21.222Z,88.8
2022-11-14T20:58:21.328Z,89.3
2022-11-14T21:10:21.191Z,90.1
2022-11-14T21:22:21.195Z,90.7
2022-11-14T21:34:21.197Z,91.5
2022-11-14T21:46:21.193Z,91.8
2022-11-14T21:58:21.211Z,91.6
2022-11-14T22:10:21.188Z,92.1
2022-11-14T22:22:21.194Z,91.8
2022-11-14T22:34:21.264Z,91.0
2022-11-14T22:46:21.189Z,91.1
2022-11-14T22:58:21.189Z,91.1
2022-11-14T23:10:21.217Z,90.2
2022-11-14T23:22:21.252Z,89.5
2022-11-14T23:34:21.279Z,88.6
2022-11-14T23:46:21.314Z,88.3
2022-11-14T23:58:21.204Z,88.6
